sensor_id;sensor_type;location;lat;lon;timestamp;temperature;humidity
24217;DHT22;12356;49.386;8.688;2023-02-11T00:02:11;3.80;22.20
24217;DHT22;12356;49.386;8.688;2023-02-11T00:04:41;3.80;22.00
24217;DHT22;12356;49.386;8.688;2023-02-11T00:07:12;3.70;21.80
24217;DHT22;12356;49.386;8.688;2023-02-11T00:09:42;3.80;21.60
24217;DHT22;12356;49.386;8.688;2023-02-11T00:12:13;3.80;22.00
24217;DHT22;12356;49.386;8.688;2023-02-11T00:14:45;3.80;21.80
24217;DHT22;12356;49.386;8.688;2023-02-11T00:17:15;3.80;22.00
24217;DHT22;12356;49.386;8.688;2023-02-11T00:19:50;3.70;21.50
24217;DHT22;12356;49.386;8.688;2023-02-11T00:22:21;3.70;21.70
24217;DHT22;12356;49.386;8.688;2023-02-11T00:24:52;3.70;21.50
24217;DHT22;12356;49.386;8.688;2023-02-11T00:27:23;3.80;21.50
24217;DHT22;12356;49.386;8.688;2023-02-11T00:29:54;3.80;21.70
24217;DHT22;12356;49.386;8.688;2023-02-11T00:32:24;3.80;21.70
24217;DHT22;12356;49.386;8.688;2023-02-11T00:34:55;3.80;21.60
24217;DHT22;12356;49.386;8.688;2023-02-11T00:37:25;3.80;21.40
24217;DHT22;12356;49.386;8.688;2023-02-11T00:39:56;3.80;22.00
24217;DHT22;12356;49.386;8.688;2023-02-11T00:42:26;3.80;21.70
24217;DHT22;12356;49.386;8.688;2023-02-11T00:44:57;3.80;22.20
24217;DHT22;12356;49.386;8.688;2023-02-11T00:47:27;3.90;22.20
24217;DHT22;12356;49.386;8.688;2023-02-11T00:49:58;3.90;22.20
24217;DHT22;12356;49.386;8.688;2023-02-11T00:52:31;3.90;21.40
24217;DHT22;12356;49.386;8.688;2023-02-11T00:55:01;3.90;21.50
24217;DHT22;12356;49.386;8.688;2023-02-11T00:57:32;4.00;21.50
24217;DHT22;12356;49.386;8.688;2023-02-11T01:00:05;4.00;21.60
24217;DHT22;12356;49.386;8.688;2023-02-11T01:02:35;4.00;21.50
24217;DHT22;12356;49.386;8.688;2023-02-11T01:05:06;4.00;21.70
24217;DHT22;12356;49.386;8.688;2023-02-11T01:07:37;4.00;21.50
24217;DHT22;12356;49.386;8.688;2023-02-11T01:10:08;4.10;21.50
24217;DHT22;12356;49.386;8.688;2023-02-11T01:12:39;4.10;21.50
24217;DHT22;12356;49.386;8.688;2023-02-11T01:15:13;3.90;21.60
24217;DHT22;12356;49.386;8.688;2023-02-11T01:17:44;3.90;21.60
24217;DHT22;12356;49.386;8.688;2023-02-11T01:20:18;3.90;22.00
24217;DHT22;12356;49.386;8.688;2023-02-11T01:22:49;3.80;21.90
24217;DHT22;12356;49.386;8.688;2023-02-11T01:25:20;3.90;22.30
24217;DHT22;12356;49.386;8.688;2023-02-11T01:27:51;4.00;21.90
24217;DHT22;12356;49.386;8.688;2023-02-11T01:30:21;4.00;22.10
24217;DHT22;12356;49.386;8.688;2023-02-11T01:32:52;4.00;21.90
24217;DHT22;12356;49.386;8.688;2023-02-11T01:35:22;4.00;22.30
24217;DHT22;12356;49.386;8.688;2023-02-11T01:37:53;3.90;22.20
24217;DHT22;12356;49.386;8.688;2023-02-11T01:40:24;4.00;21.90
24217;DHT22;12356;49.386;8.688;2023-02-11T01:42:55;4.00;21.80
24217;DHT22;12356;49.386;8.688;2023-02-11T01:48:35;4.00;21.60
24217;DHT22;12356;49.386;8.688;2023-02-11T01:51:12;4.00;21.80
24217;DHT22;12356;49.386;8.688;2023-02-11T01:53:44;3.90;22.10
24217;DHT22;12356;49.386;8.688;2023-02-11T01:56:38;3.90;21.40
24217;DHT22;12356;49.386;8.688;2023-02-11T01:59:32;3.80;21.70
24217;DHT22;12356;49.386;8.688;2023-02-11T02:02:08;3.90;21.70
24217;DHT22;12356;49.386;8.688;2023-02-11T02:04:53;3.90;21.80
24217;DHT22;12356;49.386;8.688;2023-02-11T02:07:39;3.80;22.30
24217;DHT22;12356;49.386;8.688;2023-02-11T02:10:15;3.80;22.50
24217;DHT22;12356;49.386;8.688;2023-02-11T02:12:46;3.80;22.20
24217;DHT22;12356;49.386;8.688;2023-02-11T02:15:22;3.80;22.20
24217;DHT22;12356;49.386;8.688;2023-02-11T02:18:05;3.80;22.40
24217;DHT22;12356;49.386;8.688;2023-02-11T02:23:47;3.90;22.50
24217;DHT22;12356;49.386;8.688;2023-02-11T02:30:15;3.80;22.60
24217;DHT22;12356;49.386;8.688;2023-02-11T02:36:17;3.80;22.60
24217;DHT22;12356;49.386;8.688;2023-02-11T02:38:57;3.80;22.50
24217;DHT22;12356;49.386;8.688;2023-02-11T02:41:30;3.80;22.50
24217;DHT22;12356;49.386;8.688;2023-02-11T02:44:02;3.70;22.70
24217;DHT22;12356;49.386;8.688;2023-02-11T02:46:33;3.80;23.00
24217;DHT22;12356;49.386;8.688;2023-02-11T02:49:09;3.80;23.40
24217;DHT22;12356;49.386;8.688;2023-02-11T03:00:56;3.70;23.00
24217;DHT22;12356;49.386;8.688;2023-02-11T03:09:19;3.80;22.70
24217;DHT22;12356;49.386;8.688;2023-02-11T03:11:52;3.80;22.70
24217;DHT22;12356;49.386;8.688;2023-02-11T03:14:23;3.80;22.60
24217;DHT22;12356;49.386;8.688;2023-02-11T03:16:57;3.80;22.70
24217;DHT22;12356;49.386;8.688;2023-02-11T03:19:33;3.80;23.00
24217;DHT22;12356;49.386;8.688;2023-02-11T03:22:12;3.80;23.20
24217;DHT22;12356;49.386;8.688;2023-02-11T03:24:46;3.70;23.10
24217;DHT22;12356;49.386;8.688;2023-02-11T03:27:22;3.70;23.30
24217;DHT22;12356;49.386;8.688;2023-02-11T03:30:11;3.70;23.50
24217;DHT22;12356;49.386;8.688;2023-02-11T03:33:00;3.70;23.00
24217;DHT22;12356;49.386;8.688;2023-02-11T03:35:38;3.60;23.40
24217;DHT22;12356;49.386;8.688;2023-02-11T03:38:19;3.60;23.20
24217;DHT22;12356;49.386;8.688;2023-02-11T03:40:52;3.60;23.60
24217;DHT22;12356;49.386;8.688;2023-02-11T03:43:29;3.60;23.30
24217;DHT22;12356;49.386;8.688;2023-02-11T03:46:00;3.70;23.30
24217;DHT22;12356;49.386;8.688;2023-02-11T03:48:37;3.70;23.80
24217;DHT22;12356;49.386;8.688;2023-02-11T03:51:11;3.60;23.60
24217;DHT22;12356;49.386;8.688;2023-02-11T03:53:44;3.60;23.60
24217;DHT22;12356;49.386;8.688;2023-02-11T03:56:21;3.60;23.40
24217;DHT22;12356;49.386;8.688;2023-02-11T03:58:53;3.60;23.50
24217;DHT22;12356;49.386;8.688;2023-02-11T04:01:24;3.60;23.40
24217;DHT22;12356;49.386;8.688;2023-02-11T04:03:54;3.60;23.30
24217;DHT22;12356;49.386;8.688;2023-02-11T04:06:25;3.60;23.60
24217;DHT22;12356;49.386;8.688;2023-02-11T04:08:56;3.60;23.50
24217;DHT22;12356;49.386;8.688;2023-02-11T04:11:26;3.60;23.30
24217;DHT22;12356;49.386;8.688;2023-02-11T04:13:57;3.60;23.20
24217;DHT22;12356;49.386;8.688;2023-02-11T04:16:28;3.60;23.20
24217;DHT22;12356;49.386;8.688;2023-02-11T04:19:00;3.60;23.10
24217;DHT22;12356;49.386;8.688;2023-02-11T04:21:31;3.70;23.20
24217;DHT22;12356;49.386;8.688;2023-02-11T04:24:01;3.70;23.00
24217;DHT22;12356;49.386;8.688;2023-02-11T04:26:32;3.70;23.00
24217;DHT22;12356;49.386;8.688;2023-02-11T04:29:03;3.70;23.30
24217;DHT22;12356;49.386;8.688;2023-02-11T04:31:33;3.70;23.10
24217;DHT22;12356;49.386;8.688;2023-02-11T04:34:04;3.70;22.60
24217;DHT22;12356;49.386;8.688;2023-02-11T04:36:34;3.80;22.70
24217;DHT22;12356;49.386;8.688;2023-02-11T04:39:05;3.70;22.80
24217;DHT22;12356;49.386;8.688;2023-02-11T04:41:36;3.80;23.10
24217;DHT22;12356;49.386;8.688;2023-02-11T04:44:06;3.80;23.30
24217;DHT22;12356;49.386;8.688;2023-02-11T04:46:37;3.80;23.30
24217;DHT22;12356;49.386;8.688;2023-02-11T04:49:13;3.80;22.90
24217;DHT22;12356;49.386;8.688;2023-02-11T04:51:44;3.70;23.00
24217;DHT22;12356;49.386;8.688;2023-02-11T04:54:15;3.70;23.20
24217;DHT22;12356;49.386;8.688;2023-02-11T04:56:47;3.70;22.80
24217;DHT22;12356;49.386;8.688;2023-02-11T04:59:18;3.70;22.80
24217;DHT22;12356;49.386;8.688;2023-02-11T05:01:49;3.70;23.10
24217;DHT22;12356;49.386;8.688;2023-02-11T05:04:20;3.70;22.50
24217;DHT22;12356;49.386;8.688;2023-02-11T05:06:50;3.80;22.80
24217;DHT22;12356;49.386;8.688;2023-02-11T05:09:21;3.80;22.90
24217;DHT22;12356;49.386;8.688;2023-02-11T05:11:51;3.80;23.20
24217;DHT22;12356;49.386;8.688;2023-02-11T05:14:22;3.80;23.20
24217;DHT22;12356;49.386;8.688;2023-02-11T05:16:53;3.80;22.60
24217;DHT22;12356;49.386;8.688;2023-02-11T05:19:23;3.80;23.10
24217;DHT22;12356;49.386;8.688;2023-02-11T05:21:54;3.80;23.30
24217;DHT22;12356;49.386;8.688;2023-02-11T05:24:25;3.80;23.40
24217;DHT22;12356;49.386;8.688;2023-02-11T05:26:55;3.90;23.00
24217;DHT22;12356;49.386;8.688;2023-02-11T05:29:26;3.90;22.80
24217;DHT22;12356;49.386;8.688;2023-02-11T05:31:58;3.90;22.80
24217;DHT22;12356;49.386;8.688;2023-02-11T05:34:29;3.80;22.90
24217;DHT22;12356;49.386;8.688;2023-02-11T05:36:59;3.90;23.10
24217;DHT22;12356;49.386;8.688;2023-02-11T05:39:30;3.90;23.10
24217;DHT22;12356;49.386;8.688;2023-02-11T05:42:00;3.90;23.40
24217;DHT22;12356;49.386;8.688;2023-02-11T05:44:31;3.80;23.50
24217;DHT22;12356;49.386;8.688;2023-02-11T05:47:02;3.80;23.10
24217;DHT22;12356;49.386;8.688;2023-02-11T05:49:32;3.80;23.80
24217;DHT22;12356;49.386;8.688;2023-02-11T05:52:03;3.80;23.50
24217;DHT22;12356;49.386;8.688;2023-02-11T05:54:33;3.80;23.50
24217;DHT22;12356;49.386;8.688;2023-02-11T05:57:04;3.80;23.30
24217;DHT22;12356;49.386;8.688;2023-02-11T05:59:35;3.80;23.90
24217;DHT22;12356;49.386;8.688;2023-02-11T06:02:06;3.80;23.80
24217;DHT22;12356;49.386;8.688;2023-02-11T06:04:39;3.80;23.70
24217;DHT22;12356;49.386;8.688;2023-02-11T06:07:10;3.80;23.80
24217;DHT22;12356;49.386;8.688;2023-02-11T06:09:41;3.80;24.10
24217;DHT22;12356;49.386;8.688;2023-02-11T06:12:11;3.80;24.10
24217;DHT22;12356;49.386;8.688;2023-02-11T06:14:43;3.80;23.70
24217;DHT22;12356;49.386;8.688;2023-02-11T06:17:14;3.90;23.70
24217;DHT22;12356;49.386;8.688;2023-02-11T06:19:44;3.80;23.50
24217;DHT22;12356;49.386;8.688;2023-02-11T06:22:15;3.90;24.00
24217;DHT22;12356;49.386;8.688;2023-02-11T06:24:45;3.90;23.90
24217;DHT22;12356;49.386;8.688;2023-02-11T06:27:16;4.00;23.50
24217;DHT22;12356;49.386;8.688;2023-02-11T06:29:48;3.90;23.30
24217;DHT22;12356;49.386;8.688;2023-02-11T06:32:19;3.90;23.10
24217;DHT22;12356;49.386;8.688;2023-02-11T06:34:49;3.90;22.60
24217;DHT22;12356;49.386;8.688;2023-02-11T06:37:20;3.90;22.70
24217;DHT22;12356;49.386;8.688;2023-02-11T06:39:51;3.90;22.90
24217;DHT22;12356;49.386;8.688;2023-02-11T06:42:21;3.90;22.90
24217;DHT22;12356;49.386;8.688;2023-02-11T06:44:52;3.90;23.10
24217;DHT22;12356;49.386;8.688;2023-02-11T06:47:22;3.90;23.00
24217;DHT22;12356;49.386;8.688;2023-02-11T06:49:53;3.90;23.20
24217;DHT22;12356;49.386;8.688;2023-02-11T06:52:23;3.90;22.90
24217;DHT22;12356;49.386;8.688;2023-02-11T06:54:54;3.90;22.80
24217;DHT22;12356;49.386;8.688;2023-02-11T06:57:24;3.80;22.80
24217;DHT22;12356;49.386;8.688;2023-02-11T06:59:55;3.80;23.00
24217;DHT22;12356;49.386;8.688;2023-02-11T07:02:25;3.80;22.90
24217;DHT22;12356;49.386;8.688;2023-02-11T07:04:56;3.80;23.30
24217;DHT22;12356;49.386;8.688;2023-02-11T07:07:26;3.80;23.30
24217;DHT22;12356;49.386;8.688;2023-02-11T07:09:57;3.80;23.20
24217;DHT22;12356;49.386;8.688;2023-02-11T07:12:27;3.80;22.90
24217;DHT22;12356;49.386;8.688;2023-02-11T07:14:58;3.80;23.00
24217;DHT22;12356;49.386;8.688;2023-02-11T07:17:29;3.80;23.20
24217;DHT22;12356;49.386;8.688;2023-02-11T07:19:59;3.80;22.80
24217;DHT22;12356;49.386;8.688;2023-02-11T07:22:30;3.90;23.20
24217;DHT22;12356;49.386;8.688;2023-02-11T07:25:00;3.90;22.70
24217;DHT22;12356;49.386;8.688;2023-02-11T07:27:31;3.80;22.70
24217;DHT22;12356;49.386;8.688;2023-02-11T07:30:02;3.80;22.40
24217;DHT22;12356;49.386;8.688;2023-02-11T07:32:32;3.80;22.60
24217;DHT22;12356;49.386;8.688;2023-02-11T07:35:03;3.70;22.80
24217;DHT22;12356;49.386;8.688;2023-02-11T07:37:34;3.70;22.90
24217;DHT22;12356;49.386;8.688;2023-02-11T07:40:06;3.70;22.90
24217;DHT22;12356;49.386;8.688;2023-02-11T07:42:37;3.70;22.90
24217;DHT22;12356;49.386;8.688;2023-02-11T07:45:10;3.70;23.00
24217;DHT22;12356;49.386;8.688;2023-02-11T07:47:41;3.70;22.80
24217;DHT22;12356;49.386;8.688;2023-02-11T07:50:12;3.80;23.00
24217;DHT22;12356;49.386;8.688;2023-02-11T07:52:43;3.80;22.70
24217;DHT22;12356;49.386;8.688;2023-02-11T07:55:14;3.80;22.20
24217;DHT22;12356;49.386;8.688;2023-02-11T07:57:44;3.90;22.40
24217;DHT22;12356;49.386;8.688;2023-02-11T08:00:15;3.90;22.60
24217;DHT22;12356;49.386;8.688;2023-02-11T08:02:46;3.90;22.40
24217;DHT22;12356;49.386;8.688;2023-02-11T08:05:17;3.90;22.40
24217;DHT22;12356;49.386;8.688;2023-02-11T08:07:53;4.00;22.30
24217;DHT22;12356;49.386;8.688;2023-02-11T08:10:24;4.00;22.00
24217;DHT22;12356;49.386;8.688;2023-02-11T08:12:54;3.90;22.00
24217;DHT22;12356;49.386;8.688;2023-02-11T08:15:25;3.90;22.20
24217;DHT22;12356;49.386;8.688;2023-02-11T08:17:55;3.90;21.70
24217;DHT22;12356;49.386;8.688;2023-02-11T08:20:26;3.90;22.20
24217;DHT22;12356;49.386;8.688;2023-02-11T08:22:56;3.90;22.40
24217;DHT22;12356;49.386;8.688;2023-02-11T08:25:27;4.00;22.50
24217;DHT22;12356;49.386;8.688;2023-02-11T08:27:58;4.00;22.00
24217;DHT22;12356;49.386;8.688;2023-02-11T08:30:29;4.00;21.90
24217;DHT22;12356;49.386;8.688;2023-02-11T08:32:59;4.00;21.80
24217;DHT22;12356;49.386;8.688;2023-02-11T08:35:30;4.10;22.70
24217;DHT22;12356;49.386;8.688;2023-02-11T08:38:02;4.10;22.10
24217;DHT22;12356;49.386;8.688;2023-02-11T08:40:32;4.20;21.90
24217;DHT22;12356;49.386;8.688;2023-02-11T08:43:03;4.20;21.70
24217;DHT22;12356;49.386;8.688;2023-02-11T08:45:33;4.30;22.10
24217;DHT22;12356;49.386;8.688;2023-02-11T08:48:04;4.40;21.50
24217;DHT22;12356;49.386;8.688;2023-02-11T08:50:38;4.50;21.20
24217;DHT22;12356;49.386;8.688;2023-02-11T08:53:09;4.50;21.10
24217;DHT22;12356;49.386;8.688;2023-02-11T08:55:39;4.40;21.80
24217;DHT22;12356;49.386;8.688;2023-02-11T08:58:10;4.50;21.40
24217;DHT22;12356;49.386;8.688;2023-02-11T09:00:40;4.50;21.30
24217;DHT22;12356;49.386;8.688;2023-02-11T09:03:14;4.50;21.20
24217;DHT22;12356;49.386;8.688;2023-02-11T09:05:47;4.60;21.70
24217;DHT22;12356;49.386;8.688;2023-02-11T09:08:19;4.60;21.30
24217;DHT22;12356;49.386;8.688;2023-02-11T09:10:50;4.60;21.20
24217;DHT22;12356;49.386;8.688;2023-02-11T09:13:20;4.60;21.20
24217;DHT22;12356;49.386;8.688;2023-02-11T09:15:51;4.60;21.50
24217;DHT22;12356;49.386;8.688;2023-02-11T09:18:22;4.60;21.20
24217;DHT22;12356;49.386;8.688;2023-02-11T09:20:53;4.70;21.30
24217;DHT22;12356;49.386;8.688;2023-02-11T09:23:23;4.80;21.40
24217;DHT22;12356;49.386;8.688;2023-02-11T09:25:54;4.80;21.40
24217;DHT22;12356;49.386;8.688;2023-02-11T09:28:24;4.80;21.40
24217;DHT22;12356;49.386;8.688;2023-02-11T09:30:55;4.80;21.40
24217;DHT22;12356;49.386;8.688;2023-02-11T09:33:26;4.90;21.80
24217;DHT22;12356;49.386;8.688;2023-02-11T09:36:00;5.00;21.50
24217;DHT22;12356;49.386;8.688;2023-02-11T09:38:31;5.10;21.40
24217;DHT22;12356;49.386;8.688;2023-02-11T09:41:02;5.10;20.60
24217;DHT22;12356;49.386;8.688;2023-02-11T09:43:43;5.10;20.60
24217;DHT22;12356;49.386;8.688;2023-02-11T09:46:16;5.20;20.40
24217;DHT22;12356;49.386;8.688;2023-02-11T09:48:50;5.30;20.60
24217;DHT22;12356;49.386;8.688;2023-02-11T09:51:39;5.40;20.80
24217;DHT22;12356;49.386;8.688;2023-02-11T09:54:52;5.50;20.90
24217;DHT22;12356;49.386;8.688;2023-02-11T09:57:20;5.70;20.90
24217;DHT22;12356;49.386;8.688;2023-02-11T09:59:51;5.70;20.60
24217;DHT22;12356;49.386;8.688;2023-02-11T10:02:38;5.80;20.60
24217;DHT22;12356;49.386;8.688;2023-02-11T10:08:19;6.00;20.10
24217;DHT22;12356;49.386;8.688;2023-02-11T10:11:15;6.10;20.20
24217;DHT22;12356;49.386;8.688;2023-02-11T10:14:02;6.10;18.60
24217;DHT22;12356;49.386;8.688;2023-02-11T10:22:54;6.30;18.60
24217;DHT22;12356;49.386;8.688;2023-02-11T10:25:33;6.40;18.80
24217;DHT22;12356;49.386;8.688;2023-02-11T10:28:17;6.50;18.10
24217;DHT22;12356;49.386;8.688;2023-02-11T10:30:51;6.50;18.30
24217;DHT22;12356;49.386;8.688;2023-02-11T10:33:49;6.60;19.10
24217;DHT22;12356;49.386;8.688;2023-02-11T10:36:23;6.60;18.80
24217;DHT22;12356;49.386;8.688;2023-02-11T10:38:58;6.70;18.30
24217;DHT22;12356;49.386;8.688;2023-02-11T10:41:35;6.80;17.70
24217;DHT22;12356;49.386;8.688;2023-02-11T10:44:10;6.80;17.70
24217;DHT22;12356;49.386;8.688;2023-02-11T10:46:43;6.80;17.40
24217;DHT22;12356;49.386;8.688;2023-02-11T10:49:34;6.80;17.60
24217;DHT22;12356;49.386;8.688;2023-02-11T10:52:22;6.90;17.90
24217;DHT22;12356;49.386;8.688;2023-02-11T10:54:57;6.90;17.80
24217;DHT22;12356;49.386;8.688;2023-02-11T10:57:33;7.00;17.70
24217;DHT22;12356;49.386;8.688;2023-02-11T11:00:18;7.10;18.10
24217;DHT22;12356;49.386;8.688;2023-02-11T11:02:58;7.20;17.30
24217;DHT22;12356;49.386;8.688;2023-02-11T11:05:34;7.30;17.90
24217;DHT22;12356;49.386;8.688;2023-02-11T11:08:06;7.40;17.60
24217;DHT22;12356;49.386;8.688;2023-02-11T11:10:47;7.40;17.60
24217;DHT22;12356;49.386;8.688;2023-02-11T11:18:46;7.50;17.00
24217;DHT22;12356;49.386;8.688;2023-02-11T11:21:35;7.50;17.30
24217;DHT22;12356;49.386;8.688;2023-02-11T11:24:20;7.60;16.50
24217;DHT22;12356;49.386;8.688;2023-02-11T11:26:58;7.60;17.50
24217;DHT22;12356;49.386;8.688;2023-02-11T11:29:41;7.60;16.60
24217;DHT22;12356;49.386;8.688;2023-02-11T11:32:29;7.70;17.40
24217;DHT22;12356;49.386;8.688;2023-02-11T11:35:16;7.70;17.40
24217;DHT22;12356;49.386;8.688;2023-02-11T11:37:58;7.80;17.60
24217;DHT22;12356;49.386;8.688;2023-02-11T11:40:33;7.80;17.20
24217;DHT22;12356;49.386;8.688;2023-02-11T11:43:15;7.80;16.60
24217;DHT22;12356;49.386;8.688;2023-02-11T11:45:58;7.80;16.40
24217;DHT22;12356;49.386;8.688;2023-02-11T11:48:41;7.70;16.70
24217;DHT22;12356;49.386;8.688;2023-02-11T11:51:15;7.80;16.70
24217;DHT22;12356;49.386;8.688;2023-02-11T11:56:32;7.90;16.40
24217;DHT22;12356;49.386;8.688;2023-02-11T11:59:10;7.90;16.30
24217;DHT22;12356;49.386;8.688;2023-02-11T12:02:05;7.90;16.70
24217;DHT22;12356;49.386;8.688;2023-02-11T12:07:55;7.90;16.70
24217;DHT22;12356;49.386;8.688;2023-02-11T12:11:24;8.00;17.80
24217;DHT22;12356;49.386;8.688;2023-02-11T12:16:39;8.10;16.70
24217;DHT22;12356;49.386;8.688;2023-02-11T12:25:32;8.10;16.70
24217;DHT22;12356;49.386;8.688;2023-02-11T12:34:20;8.10;16.30
24217;DHT22;12356;49.386;8.688;2023-02-11T12:40:10;8.20;16.10
24217;DHT22;12356;49.386;8.688;2023-02-11T12:54:19;8.40;16.00
24217;DHT22;12356;49.386;8.688;2023-02-11T12:57:13;8.40;15.80
24217;DHT22;12356;49.386;8.688;2023-02-11T13:00:02;8.40;16.00
24217;DHT22;12356;49.386;8.688;2023-02-11T13:02:58;8.40;17.40
24217;DHT22;12356;49.386;8.688;2023-02-11T13:05:41;8.40;16.70
24217;DHT22;12356;49.386;8.688;2023-02-11T13:11:07;8.40;16.30
24217;DHT22;12356;49.386;8.688;2023-02-11T13:16:35;8.50;17.50
24217;DHT22;12356;49.386;8.688;2023-02-11T13:19:16;8.60;17.90
24217;DHT22;12356;49.386;8.688;2023-02-11T13:24:42;8.60;16.60
24217;DHT22;12356;49.386;8.688;2023-02-11T13:30:24;8.70;16.70
24217;DHT22;12356;49.386;8.688;2023-02-11T13:35:32;8.70;17.00
24217;DHT22;12356;49.386;8.688;2023-02-11T13:38:19;8.70;17.00
24217;DHT22;12356;49.386;8.688;2023-02-11T13:41:02;8.70;16.90
24217;DHT22;12356;49.386;8.688;2023-02-11T13:43:34;8.70;17.00
24217;DHT22;12356;49.386;8.688;2023-02-11T13:46:07;8.70;16.70
24217;DHT22;12356;49.386;8.688;2023-02-11T13:48:50;8.70;16.80
24217;DHT22;12356;49.386;8.688;2023-02-11T13:51:38;8.70;16.30
24217;DHT22;12356;49.386;8.688;2023-02-11T13:54:28;8.70;16.70
24217;DHT22;12356;49.386;8.688;2023-02-11T13:59:57;8.80;16.70
24217;DHT22;12356;49.386;8.688;2023-02-11T14:02:36;8.80;16.60
24217;DHT22;12356;49.386;8.688;2023-02-11T14:05:27;8.70;16.80
24217;DHT22;12356;49.386;8.688;2023-02-11T14:08:19;8.80;17.30
24217;DHT22;12356;49.386;8.688;2023-02-11T14:19:46;8.50;17.30
24217;DHT22;12356;49.386;8.688;2023-02-11T14:22:45;8.60;17.40
24217;DHT22;12356;49.386;8.688;2023-02-11T14:25:21;8.60;17.80
24217;DHT22;12356;49.386;8.688;2023-02-11T14:28:06;8.70;18.60
24217;DHT22;12356;49.386;8.688;2023-02-11T14:31:17;8.60;18.30
24217;DHT22;12356;49.386;8.688;2023-02-11T14:34:04;8.60;18.70
24217;DHT22;12356;49.386;8.688;2023-02-11T14:37:08;8.60;18.60
24217;DHT22;12356;49.386;8.688;2023-02-11T14:42:24;8.70;19.10
24217;DHT22;12356;49.386;8.688;2023-02-11T14:45:02;8.70;19.10
24217;DHT22;12356;49.386;8.688;2023-02-11T14:47:48;8.70;19.60
24217;DHT22;12356;49.386;8.688;2023-02-11T14:50:25;8.80;19.70
24217;DHT22;12356;49.386;8.688;2023-02-11T14:52:59;8.80;19.70
24217;DHT22;12356;49.386;8.688;2023-02-11T14:55:40;8.80;20.30
24217;DHT22;12356;49.386;8.688;2023-02-11T14:58:20;8.70;20.40
24217;DHT22;12356;49.386;8.688;2023-02-11T15:00:59;8.70;20.70
24217;DHT22;12356;49.386;8.688;2023-02-11T15:03:37;8.70;20.70
24217;DHT22;12356;49.386;8.688;2023-02-11T15:06:21;8.70;21.20
24217;DHT22;12356;49.386;8.688;2023-02-11T15:08:56;8.70;21.10
24217;DHT22;12356;49.386;8.688;2023-02-11T15:11:38;8.60;21.10
24217;DHT22;12356;49.386;8.688;2023-02-11T15:14:17;8.70;21.30
24217;DHT22;12356;49.386;8.688;2023-02-11T15:16:49;8.60;21.10
24217;DHT22;12356;49.386;8.688;2023-02-11T15:19:34;8.60;21.30
24217;DHT22;12356;49.386;8.688;2023-02-11T15:22:25;8.60;22.20
24217;DHT22;12356;49.386;8.688;2023-02-11T15:25:07;8.60;22.50
24217;DHT22;12356;49.386;8.688;2023-02-11T15:27:39;8.60;22.60
24217;DHT22;12356;49.386;8.688;2023-02-11T15:33:02;8.60;23.00
24217;DHT22;12356;49.386;8.688;2023-02-11T15:35:37;8.60;23.10
24217;DHT22;12356;49.386;8.688;2023-02-11T15:38:11;8.60;23.20
24217;DHT22;12356;49.386;8.688;2023-02-11T15:40:52;8.60;22.80
24217;DHT22;12356;49.386;8.688;2023-02-11T15:43:23;8.60;23.00
24217;DHT22;12356;49.386;8.688;2023-02-11T15:45:57;8.60;23.10
24217;DHT22;12356;49.386;8.688;2023-02-11T15:51:21;8.50;24.30
24217;DHT22;12356;49.386;8.688;2023-02-11T15:54:06;8.50;24.90
24217;DHT22;12356;49.386;8.688;2023-02-11T15:56:39;8.50;25.20
24217;DHT22;12356;49.386;8.688;2023-02-11T15:59:32;8.40;26.20
24217;DHT22;12356;49.386;8.688;2023-02-11T16:02:08;8.40;26.80
24217;DHT22;12356;49.386;8.688;2023-02-11T16:05:04;8.40;27.00
24217;DHT22;12356;49.386;8.688;2023-02-11T16:07:46;8.40;26.50
24217;DHT22;12356;49.386;8.688;2023-02-11T16:10:28;8.30;25.90
24217;DHT22;12356;49.386;8.688;2023-02-11T16:18:30;8.40;25.20
24217;DHT22;12356;49.386;8.688;2023-02-11T16:21:02;8.30;25.30
24217;DHT22;12356;49.386;8.688;2023-02-11T16:23:39;8.40;25.30
24217;DHT22;12356;49.386;8.688;2023-02-11T16:26:38;8.40;26.10
24217;DHT22;12356;49.386;8.688;2023-02-11T16:29:15;8.40;25.90
24217;DHT22;12356;49.386;8.688;2023-02-11T16:31:47;8.40;25.40
24217;DHT22;12356;49.386;8.688;2023-02-11T16:34:20;8.40;25.60
24217;DHT22;12356;49.386;8.688;2023-02-11T16:36:51;8.40;25.00
24217;DHT22;12356;49.386;8.688;2023-02-11T16:39:22;8.40;25.80
24217;DHT22;12356;49.386;8.688;2023-02-11T16:41:53;8.30;25.30
24217;DHT22;12356;49.386;8.688;2023-02-11T16:44:23;8.30;25.10
24217;DHT22;12356;49.386;8.688;2023-02-11T16:46:58;8.30;25.80
24217;DHT22;12356;49.386;8.688;2023-02-11T16:49:40;8.30;25.80
24217;DHT22;12356;49.386;8.688;2023-02-11T16:52:13;8.40;26.20
24217;DHT22;12356;49.386;8.688;2023-02-11T16:54:44;8.30;26.20
24217;DHT22;12356;49.386;8.688;2023-02-11T16:57:17;8.30;26.70
24217;DHT22;12356;49.386;8.688;2023-02-11T16:59:49;8.40;27.30
24217;DHT22;12356;49.386;8.688;2023-02-11T17:02:28;8.30;27.30
24217;DHT22;12356;49.386;8.688;2023-02-11T17:05:01;8.30;27.00
24217;DHT22;12356;49.386;8.688;2023-02-11T17:07:32;8.20;26.10
24217;DHT22;12356;49.386;8.688;2023-02-11T17:10:12;8.20;26.10
24217;DHT22;12356;49.386;8.688;2023-02-11T17:12:42;8.20;26.70
24217;DHT22;12356;49.386;8.688;2023-02-11T17:15:13;8.30;26.90
24217;DHT22;12356;49.386;8.688;2023-02-11T17:17:44;8.20;27.10
24217;DHT22;12356;49.386;8.688;2023-02-11T17:20:15;8.30;27.10
24217;DHT22;12356;49.386;8.688;2023-02-11T17:22:46;8.20;27.30
24217;DHT22;12356;49.386;8.688;2023-02-11T17:25:17;8.20;28.20
24217;DHT22;12356;49.386;8.688;2023-02-11T17:27:47;8.20;29.00
24217;DHT22;12356;49.386;8.688;2023-02-11T17:30:18;8.20;30.00
24217;DHT22;12356;49.386;8.688;2023-02-11T17:32:49;8.10;29.90
24217;DHT22;12356;49.386;8.688;2023-02-11T17:35:19;8.10;29.20
24217;DHT22;12356;49.386;8.688;2023-02-11T17:37:50;8.10;29.80
24217;DHT22;12356;49.386;8.688;2023-02-11T17:40:20;8.00;31.00
24217;DHT22;12356;49.386;8.688;2023-02-11T17:42:51;8.00;31.10
24217;DHT22;12356;49.386;8.688;2023-02-11T17:45:21;8.00;31.40
24217;DHT22;12356;49.386;8.688;2023-02-11T17:47:52;8.00;31.00
24217;DHT22;12356;49.386;8.688;2023-02-11T17:50:22;8.00;30.80
24217;DHT22;12356;49.386;8.688;2023-02-11T17:52:53;8.10;31.30
24217;DHT22;12356;49.386;8.688;2023-02-11T17:55:24;8.00;31.50
24217;DHT22;12356;49.386;8.688;2023-02-11T17:57:54;8.10;32.50
24217;DHT22;12356;49.386;8.688;2023-02-11T18:00:25;8.00;30.70
24217;DHT22;12356;49.386;8.688;2023-02-11T18:02:57;8.00;30.40
24217;DHT22;12356;49.386;8.688;2023-02-11T18:05:36;7.90;31.50
24217;DHT22;12356;49.386;8.688;2023-02-11T18:08:07;7.90;33.10
24217;DHT22;12356;49.386;8.688;2023-02-11T18:10:40;7.90;32.40
24217;DHT22;12356;49.386;8.688;2023-02-11T18:13:11;7.90;33.30
24217;DHT22;12356;49.386;8.688;2023-02-11T18:15:42;7.90;33.60
24217;DHT22;12356;49.386;8.688;2023-02-11T18:18:13;7.90;33.40
24217;DHT22;12356;49.386;8.688;2023-02-11T18:20:44;7.90;33.50
24217;DHT22;12356;49.386;8.688;2023-02-11T18:23:15;7.90;33.90
24217;DHT22;12356;49.386;8.688;2023-02-11T18:25:46;7.90;34.20
24217;DHT22;12356;49.386;8.688;2023-02-11T18:28:16;8.00;34.60
24217;DHT22;12356;49.386;8.688;2023-02-11T18:30:47;7.90;35.00
24217;DHT22;12356;49.386;8.688;2023-02-11T18:33:17;7.90;34.50